You are not logged in, Click here to log in
ICAO: VQPR Country: 不丹離帕羅市中心約6公里
Latitude: 27.4032 Longitude: 89.4246
Total Arrivals: 11 Total Departures: 9
Latest Arrival: BR3210 (ZULS-VQPR)Jason. Li Latest Departure: KB130W (VQPR-WSSS)Jason. Li
Scenery:
METAR : VQPR 180700Z 12009KT 9999 SCT040 29/13 Q1017

帕羅機場 PBH